Time;durP1;ratioP1;P1;durP2;ratioP2;P2;SDS_P1;SDS_P2;PMS_P1;PMS_P2;Temp;Humidity;BMP_temperature;BMP_pressure;BME280_temperature;BME280_humidity;BME280_pressure;Samples;Min_cycle;Max_cycle;Signal;HPM_P1;HPM_P2
2023/08/30 00:00:14;;;;;;;11.30;10.80;;;;;;;;;;5086876;28;20107;-64
2023/08/30 00:02:39;;;;;;;11.55;11.05;;;;;;;;;;5080993;28;20178;-63
2023/08/30 00:05:04;;;;;;;11.45;10.95;;;;;;;;;;5080667;28;20069;-63
2023/08/30 00:07:30;;;;;;;11.68;11.18;;;;;;;;;;5082355;28;20020;-61
2023/08/30 00:09:58;;;;;;;11.70;11.20;;;;;;;;;;5085959;28;20023;-63
2023/08/30 00:12:23;;;;;;;11.80;11.30;;;;;;;;;;5086370;28;20031;-63
2023/08/30 00:14:48;;;;;;;11.90;11.40;;;;;;;;;;5083512;28;20016;-62
2023/08/30 00:17:14;;;;;;;11.53;11.03;;;;;;;;;;5081258;28;20039;-63
2023/08/30 00:19:40;;;;;;;11.63;11.13;;;;;;;;;;5084330;28;20409;-62
2023/08/30 00:22:07;;;;;;;11.85;11.35;;;;;;;;;;5087485;28;20383;-62
2023/08/30 00:24:32;;;;;;;11.57;11.07;;;;;;;;;;5081441;28;20747;-63
2023/08/30 00:26:58;;;;;;;11.70;11.20;;;;;;;;;;5085891;28;20028;-63
2023/08/30 00:29:23;;;;;;;11.43;10.93;;;;;;;;;;5084310;28;20108;-62
2023/08/30 00:31:48;;;;;;;11.90;11.40;;;;;;;;;;5087009;28;20111;-62
2023/08/30 00:34:13;;;;;;;11.50;11.00;;;;;;;;;;5082981;28;20068;-62
2023/08/30 00:36:39;;;;;;;11.45;10.95;;;;;;;;;;5085334;28;20050;-63
2023/08/30 00:39:04;;;;;;;11.25;10.75;;;;;;;;;;5083402;28;20032;-63
2023/08/30 00:41:29;;;;;;;11.90;11.40;;;;;;;;;;5085324;28;20034;-63
2023/08/30 00:43:55;;;;;;;11.77;11.27;;;;;;;;;;5087427;28;20032;-63
2023/08/30 00:46:20;;;;;;;11.30;10.80;;;;;;;;;;5082319;28;20021;-62
2023/08/30 00:48:45;;;;;;;11.30;10.80;;;;;;;;;;5080649;28;20317;-62
2023/08/30 00:51:11;;;;;;;11.55;11.05;;;;;;;;;;5076557;28;20024;-62
2023/08/30 00:53:36;;;;;;;11.30;10.80;;;;;;;;;;5085435;28;20093;-63
2023/08/30 00:56:02;;;;;;;11.63;11.13;;;;;;;;;;5082386;28;20149;-63
2023/08/30 00:58:27;;;;;;;11.48;10.98;;;;;;;;;;5087835;28;20024;-62
2023/08/30 01:00:53;;;;;;;11.55;11.05;;;;;;;;;;5087380;28;20080;-62
2023/08/30 01:03:20;;;;;;;11.50;11.00;;;;;;;;;;5086321;28;20041;-63
2023/08/30 01:05:45;;;;;;;11.52;11.02;;;;;;;;;;5082292;28;20036;-62
2023/08/30 01:08:11;;;;;;;12.00;11.50;;;;;;;;;;5089712;28;20074;-62
2023/08/30 01:10:36;;;;;;;11.32;10.82;;;;;;;;;;5084921;28;20070;-63
2023/08/30 01:13:05;;;;;;;11.47;10.97;;;;;;;;;;5082618;28;20016;-63
2023/08/30 01:15:32;;;;;;;11.70;11.20;;;;;;;;;;5086327;28;20257;-62
2023/08/30 01:17:58;;;;;;;11.80;11.30;;;;;;;;;;5093349;28;20016;-61
2023/08/30 01:20:25;;;;;;;11.70;11.20;;;;;;;;;;5083121;28;20017;-62
2023/08/30 01:22:51;;;;;;;11.60;11.10;;;;;;;;;;5084175;28;20020;-62
2023/08/30 01:25:28;;;;;;;11.50;11.00;;;;;;;;;;5091558;28;20441;-62
2023/08/30 01:27:54;;;;;;;11.70;11.20;;;;;;;;;;5089014;28;20260;-62
2023/08/30 01:30:19;;;;;;;11.40;10.90;;;;;;;;;;5087018;28;20108;-62
2023/08/30 01:32:46;;;;;;;11.30;10.80;;;;;;;;;;5092240;28;20048;-62
2023/08/30 01:35:16;;;;;;;11.40;10.90;;;;;;;;;;5088934;28;20442;-62
2023/08/30 01:37:44;;;;;;;11.70;11.20;;;;;;;;;;5083428;28;20036;-63
2023/08/30 01:40:11;;;;;;;11.65;11.15;;;;;;;;;;5088872;28;20021;-62
2023/08/30 01:42:36;;;;;;;11.50;11.00;;;;;;;;;;5086260;28;20052;-62
2023/08/30 01:45:03;;;;;;;11.20;10.70;;;;;;;;;;5084487;28;20052;-62
2023/08/30 01:47:29;;;;;;;11.38;10.88;;;;;;;;;;5088604;28;20043;-62
2023/08/30 01:49:55;;;;;;;11.65;11.15;;;;;;;;;;5087905;28;20020;-62
2023/08/30 01:52:21;;;;;;;11.80;11.30;;;;;;;;;;5087609;28;20073;-62
2023/08/30 01:54:46;;;;;;;11.57;11.07;;;;;;;;;;5080214;28;20024;-63
2023/08/30 01:57:12;;;;;;;11.25;10.75;;;;;;;;;;5083631;28;20032;-63
2023/08/30 01:59:38;;;;;;;11.70;11.20;;;;;;;;;;5085836;28;20050;-64
2023/08/30 02:02:04;;;;;;;11.38;10.88;;;;;;;;;;5086972;28;20058;-63
2023/08/30 02:04:31;;;;;;;11.60;11.10;;;;;;;;;;5083811;28;20036;-63
2023/08/30 02:07:03;;;;;;;11.77;11.27;;;;;;;;;;5088797;28;20036;-63
2023/08/30 02:09:40;;;;;;;11.52;11.02;;;;;;;;;;5084019;28;20383;-63
2023/08/30 02:12:10;;;;;;;11.45;10.95;;;;;;;;;;5087973;28;20044;-63
2023/08/30 02:14:36;;;;;;;11.40;10.90;;;;;;;;;;5085932;28;20390;-63
2023/08/30 02:17:02;;;;;;;11.23;10.73;;;;;;;;;;5092041;28;20425;-63
2023/08/30 02:19:28;;;;;;;11.52;11.02;;;;;;;;;;5085459;28;20054;-63
2023/08/30 02:21:53;;;;;;;10.90;10.40;;;;;;;;;;5088041;28;20032;-63
2023/08/30 02:24:18;;;;;;;11.55;11.05;;;;;;;;;;5083760;28;20024;-64
2023/08/30 02:26:44;;;;;;;11.32;10.82;;;;;;;;;;5087470;28;20474;-62
2023/08/30 02:29:09;;;;;;;11.07;10.57;;;;;;;;;;5087020;28;20024;-62
2023/08/30 02:31:35;;;;;;;11.25;10.75;;;;;;;;;;5086236;28;20081;-62
2023/08/30 02:34:02;;;;;;;11.20;10.70;;;;;;;;;;5090180;28;20027;-63
2023/08/30 02:36:27;;;;;;;11.43;10.93;;;;;;;;;;5084724;28;20024;-64
2023/08/30 02:38:52;;;;;;;11.50;11.00;;;;;;;;;;5084930;28;20028;-63
2023/08/30 02:41:18;;;;;;;11.30;10.80;;;;;;;;;;5086746;28;20065;-62
2023/08/30 02:43:43;;;;;;;11.20;10.70;;;;;;;;;;5082638;28;20041;-62
2023/08/30 02:46:08;;;;;;;11.60;11.10;;;;;;;;;;5084634;28;20272;-61
2023/08/30 02:48:33;;;;;;;11.90;11.40;;;;;;;;;;5082212;28;20020;-63
2023/08/30 02:50:59;;;;;;;11.25;10.75;;;;;;;;;;5085730;28;20054;-62
2023/08/30 02:53:24;;;;;;;10.93;10.43;;;;;;;;;;5084181;28;20646;-61
2023/08/30 02:55:49;;;;;;;11.45;10.95;;;;;;;;;;5089198;28;20012;-63
2023/08/30 02:58:15;;;;;;;11.40;10.90;;;;;;;;;;5090740;28;20463;-63
2023/08/30 03:00:40;;;;;;;11.90;11.40;;;;;;;;;;5087980;28;20049;-62
2023/08/30 03:03:05;;;;;;;11.48;10.98;;;;;;;;;;5082052;28;20056;-62
2023/08/30 03:05:31;;;;;;;11.90;11.40;;;;;;;;;;5084737;28;20493;-61
2023/08/30 03:07:56;;;;;;;11.80;11.30;;;;;;;;;;5082409;28;20024;-63
2023/08/30 03:10:22;;;;;;;11.47;10.97;;;;;;;;;;5085417;28;20464;-63
2023/08/30 03:12:47;;;;;;;11.48;10.98;;;;;;;;;;5083326;28;20311;-63
2023/08/30 03:15:13;;;;;;;11.68;11.18;;;;;;;;;;5088330;28;20046;-63
2023/08/30 03:17:38;;;;;;;11.27;10.77;;;;;;;;;;5086032;28;20024;-63
2023/08/30 03:20:03;;;;;;;11.52;11.02;;;;;;;;;;5080640;28;20032;-62
2023/08/30 03:22:29;;;;;;;11.27;10.77;;;;;;;;;;5079366;28;20454;-62
2023/08/30 03:24:54;;;;;;;11.60;11.10;;;;;;;;;;5081978;28;20032;-63
2023/08/30 03:27:20;;;;;;;11.20;10.70;;;;;;;;;;5078118;28;20104;-63
2023/08/30 03:29:45;;;;;;;11.80;11.30;;;;;;;;;;5082335;28;20032;-63
2023/08/30 03:32:13;;;;;;;11.48;10.98;;;;;;;;;;5090114;28;20024;-63
2023/08/30 03:34:39;;;;;;;11.85;11.35;;;;;;;;;;5083432;28;20021;-62
2023/08/30 03:37:04;;;;;;;11.52;11.02;;;;;;;;;;5086889;28;20110;-62
2023/08/30 03:39:29;;;;;;;12.00;11.50;;;;;;;;;;5081369;28;20408;-62
2023/08/30 03:41:54;;;;;;;11.55;11.05;;;;;;;;;;5080111;28;20097;-62
2023/08/30 03:44:20;;;;;;;11.73;11.23;;;;;;;;;;5083733;28;20020;-61
2023/08/30 03:46:45;;;;;;;11.15;10.65;;;;;;;;;;5079033;28;20082;-62
2023/08/30 03:49:11;;;;;;;11.52;11.02;;;;;;;;;;5085748;28;20077;-63
2023/08/30 03:51:36;;;;;;;11.60;11.10;;;;;;;;;;5086478;28;20057;-63
2023/08/30 03:54:01;;;;;;;11.40;10.90;;;;;;;;;;5084390;28;20027;-63
2023/08/30 03:56:26;;;;;;;11.20;10.70;;;;;;;;;;5087894;28;20438;-63
2023/08/30 03:58:52;;;;;;;11.95;11.45;;;;;;;;;;5087518;28;20103;-62
2023/08/30 04:01:17;;;;;;;11.50;11.00;;;;;;;;;;5081438;28;20399;-63
2023/08/30 04:03:42;;;;;;;11.65;11.15;;;;;;;;;;5092383;28;20048;-62
2023/08/30 04:06:07;;;;;;;11.65;11.15;;;;;;;;;;5086995;28;20016;-63
2023/08/30 04:08:34;;;;;;;11.48;10.98;;;;;;;;;;5082291;28;20040;-63
2023/08/30 04:10:59;;;;;;;11.68;11.18;;;;;;;;;;5086018;28;20008;-63
2023/08/30 04:13:25;;;;;;;11.35;10.85;;;;;;;;;;5082378;28;20028;-63
2023/08/30 04:15:51;;;;;;;11.30;10.80;;;;;;;;;;5080733;28;20441;-63
2023/08/30 04:18:16;;;;;;;11.30;10.80;;;;;;;;;;5080431;28;20024;-63
2023/08/30 04:20:45;;;;;;;11.45;10.95;;;;;;;;;;5088409;28;20449;-64
2023/08/30 04:23:10;;;;;;;11.57;11.07;;;;;;;;;;5084216;28;20027;-63
2023/08/30 04:25:36;;;;;;;11.55;11.05;;;;;;;;;;5085522;28;20390;-64
2023/08/30 04:28:02;;;;;;;11.80;11.30;;;;;;;;;;5082557;28;20017;-63
2023/08/30 04:30:27;;;;;;;11.70;11.20;;;;;;;;;;5080949;28;20495;-63
2023/08/30 04:32:52;;;;;;;11.82;11.32;;;;;;;;;;5086935;28;20020;-63
2023/08/30 04:35:18;;;;;;;11.80;11.30;;;;;;;;;;5084475;28;20379;-63
2023/08/30 04:37:43;;;;;;;11.98;11.48;;;;;;;;;;5086608;28;20480;-64
2023/08/30 04:40:09;;;;;;;11.65;11.15;;;;;;;;;;5079274;28;20051;-63
2023/08/30 04:42:34;;;;;;;11.48;10.98;;;;;;;;;;5074926;28;20146;-64
2023/08/30 04:45:00;;;;;;;11.90;11.40;;;;;;;;;;5084211;28;20124;-62
2023/08/30 04:47:26;;;;;;;11.63;11.13;;;;;;;;;;5086495;28;20450;-64
2023/08/30 04:49:51;;;;;;;12.07;11.57;;;;;;;;;;5075113;28;20036;-63
2023/08/30 04:52:17;;;;;;;12.00;11.50;;;;;;;;;;5084026;28;20012;-63
2023/08/30 04:54:42;;;;;;;11.70;11.20;;;;;;;;;;5088664;28;20503;-63
2023/08/30 04:57:08;;;;;;;11.68;11.18;;;;;;;;;;5087134;28;20047;-63
2023/08/30 04:59:33;;;;;;;12.00;11.50;;;;;;;;;;5076815;28;20040;-63
2023/08/30 05:01:59;;;;;;;11.73;11.23;;;;;;;;;;5084477;28;20024;-64
2023/08/30 05:04:24;;;;;;;11.77;11.27;;;;;;;;;;5076210;28;20372;-63
2023/08/30 05:06:50;;;;;;;11.50;11.00;;;;;;;;;;5079905;28;20388;-63
2023/08/30 05:09:15;;;;;;;11.45;10.95;;;;;;;;;;5081262;28;20392;-62
2023/08/30 05:11:40;;;;;;;11.60;11.10;;;;;;;;;;5082260;28;20108;-62
2023/08/30 05:14:06;;;;;;;11.77;11.27;;;;;;;;;;5085096;28;20021;-63
2023/08/30 05:16:32;;;;;;;11.60;11.10;;;;;;;;;;5076565;28;20672;-62
2023/08/30 05:18:57;;;;;;;11.60;11.10;;;;;;;;;;5078730;28;20063;-63
2023/08/30 05:21:22;;;;;;;11.50;11.00;;;;;;;;;;5078986;28;20556;-63
2023/08/30 05:23:47;;;;;;;11.53;11.03;;;;;;;;;;5078824;28;20268;-63
2023/08/30 05:26:13;;;;;;;11.90;11.40;;;;;;;;;;5080794;28;20329;-63
2023/08/30 05:28:39;;;;;;;11.70;11.20;;;;;;;;;;5081810;28;20027;-64
2023/08/30 05:31:04;;;;;;;11.90;11.40;;;;;;;;;;5085783;28;20024;-63
2023/08/30 05:33:30;;;;;;;11.70;11.20;;;;;;;;;;5085146;28;20028;-63
2023/08/30 05:35:55;;;;;;;11.75;11.25;;;;;;;;;;5084123;28;20028;-64
2023/08/30 05:38:21;;;;;;;11.88;11.38;;;;;;;;;;5078288;28;20020;-64
2023/08/30 05:40:46;;;;;;;11.60;11.10;;;;;;;;;;5080267;28;20049;-64
2023/08/30 05:43:11;;;;;;;11.90;11.40;;;;;;;;;;5082228;28;20348;-63
2023/08/30 05:45:37;;;;;;;11.75;11.25;;;;;;;;;;5082149;28;20048;-65
2023/08/30 05:48:02;;;;;;;12.30;11.80;;;;;;;;;;5083608;28;20020;-64
2023/08/30 05:50:28;;;;;;;12.00;11.50;;;;;;;;;;5081503;27;20268;-63
2023/08/30 05:52:53;;;;;;;11.93;11.43;;;;;;;;;;5084285;28;20431;-63
2023/08/30 05:55:18;;;;;;;12.07;11.57;;;;;;;;;;5082551;28;20340;-63
2023/08/30 05:57:44;;;;;;;11.98;11.48;;;;;;;;;;5081633;28;20028;-65
2023/08/30 06:00:10;;;;;;;11.55;11.05;;;;;;;;;;5082569;28;20424;-64
2023/08/30 06:02:35;;;;;;;11.57;11.07;;;;;;;;;;5082994;28;20059;-63
2023/08/30 06:05:00;;;;;;;11.93;11.43;;;;;;;;;;5087124;28;20032;-63
2023/08/30 06:07:25;;;;;;;12.20;11.70;;;;;;;;;;5086660;28;20161;-64
2023/08/30 06:09:51;;;;;;;12.27;11.77;;;;;;;;;;5081264;28;20027;-64
2023/08/30 06:12:16;;;;;;;11.80;11.30;;;;;;;;;;5080878;28;20257;-65
2023/08/30 06:14:42;;;;;;;12.00;11.50;;;;;;;;;;5079719;28;20016;-64
2023/08/30 06:17:07;;;;;;;11.82;11.32;;;;;;;;;;5082682;28;20035;-64
2023/08/30 06:19:33;;;;;;;11.82;11.32;;;;;;;;;;5081017;28;20472;-64
2023/08/30 06:21:58;;;;;;;11.33;10.83;;;;;;;;;;5085888;28;20404;-62
2023/08/30 06:24:23;;;;;;;11.55;11.05;;;;;;;;;;5080348;28;20254;-61
2023/08/30 06:26:49;;;;;;;11.57;11.07;;;;;;;;;;5080179;28;20718;-62
2023/08/30 06:29:14;;;;;;;11.50;11.00;;;;;;;;;;5085664;28;20257;-61
2023/08/30 06:31:41;;;;;;;11.50;11.00;;;;;;;;;;5084711;28;20017;-61
2023/08/30 06:34:06;;;;;;;11.50;11.00;;;;;;;;;;5082616;28;20134;-62
2023/08/30 06:36:32;;;;;;;11.60;11.10;;;;;;;;;;5079985;28;20099;-63
2023/08/30 06:38:57;;;;;;;11.57;11.07;;;;;;;;;;5086980;28;20016;-62
2023/08/30 06:41:23;;;;;;;11.47;10.97;;;;;;;;;;5080606;28;20020;-62
2023/08/30 06:43:48;;;;;;;11.50;11.00;;;;;;;;;;5078131;28;20080;-61
2023/08/30 06:46:13;;;;;;;11.43;10.93;;;;;;;;;;5078427;28;20686;-61
2023/08/30 06:48:39;;;;;;;11.30;10.80;;;;;;;;;;5078015;28;20471;-61
2023/08/30 06:51:04;;;;;;;12.10;11.60;;;;;;;;;;5071077;28;20277;-67
2023/08/30 06:53:29;;;;;;;11.20;10.70;;;;;;;;;;5074210;28;20549;-63
2023/08/30 06:56:01;;;;;;;11.45;10.95;;;;;;;;;;5074224;28;20111;-67
2023/08/30 06:58:26;;;;;;;11.70;11.20;;;;;;;;;;5074864;28;20028;-67
2023/08/30 07:00:52;;;;;;;11.57;11.07;;;;;;;;;;5077906;28;20115;-65
2023/08/30 07:03:17;;;;;;;11.07;10.57;;;;;;;;;;5079369;28;20047;-67
2023/08/30 07:05:43;;;;;;;11.50;11.00;;;;;;;;;;5078143;28;20024;-66
2023/08/30 07:08:09;;;;;;;11.65;11.15;;;;;;;;;;5077898;28;20483;-65
2023/08/30 07:10:34;;;;;;;11.60;11.10;;;;;;;;;;5083118;28;20022;-66
2023/08/30 07:13:00;;;;;;;12.00;11.50;;;;;;;;;;5083638;28;20012;-66
2023/08/30 07:15:27;;;;;;;12.00;11.50;;;;;;;;;;5081100;28;20074;-66
2023/08/30 07:17:53;;;;;;;11.68;11.18;;;;;;;;;;5077458;28;20020;-66
2023/08/30 07:20:18;;;;;;;11.70;11.20;;;;;;;;;;5078998;28;20529;-66
2023/08/30 07:22:43;;;;;;;11.90;11.40;;;;;;;;;;5079632;28;20296;-65
2023/08/30 07:25:10;;;;;;;11.68;11.18;;;;;;;;;;5079877;28;20498;-66
2023/08/30 07:27:35;;;;;;;11.50;11.00;;;;;;;;;;5079354;28;20025;-65
2023/08/30 07:30:01;;;;;;;11.68;11.18;;;;;;;;;;5080869;28;20472;-66
2023/08/30 07:32:27;;;;;;;11.80;11.30;;;;;;;;;;5076672;28;20024;-66
2023/08/30 07:34:52;;;;;;;11.77;11.27;;;;;;;;;;5080801;28;20112;-66
2023/08/30 07:37:20;;;;;;;11.40;10.90;;;;;;;;;;5083080;28;20506;-65
2023/08/30 07:39:46;;;;;;;11.52;11.02;;;;;;;;;;5079118;28;20284;-66
2023/08/30 07:42:11;;;;;;;11.43;10.93;;;;;;;;;;5076345;28;20032;-65
2023/08/30 07:44:36;;;;;;;11.70;11.20;;;;;;;;;;5073251;28;20025;-65
2023/08/30 07:47:02;;;;;;;11.70;11.20;;;;;;;;;;5081865;28;20024;-65
2023/08/30 07:49:28;;;;;;;11.55;11.05;;;;;;;;;;5082353;28;20352;-65
2023/08/30 07:51:53;;;;;;;11.85;11.35;;;;;;;;;;5076954;28;20127;-65
2023/08/30 07:54:18;;;;;;;11.73;11.23;;;;;;;;;;5079647;28;20055;-65
2023/08/30 07:56:44;;;;;;;11.63;11.13;;;;;;;;;;5082192;28;20272;-65
2023/08/30 07:59:09;;;;;;;11.57;11.07;;;;;;;;;;5077553;28;20078;-65
2023/08/30 08:01:34;;;;;;;11.60;11.10;;;;;;;;;;5078520;28;20084;-64
2023/08/30 08:04:00;;;;;;;11.90;11.40;;;;;;;;;;5079408;28;20143;-64
2023/08/30 08:06:25;;;;;;;11.90;11.40;;;;;;;;;;5075755;28;20288;-65
2023/08/30 08:08:50;;;;;;;11.83;11.33;;;;;;;;;;5079398;28;20663;-64
2023/08/30 08:11:15;;;;;;;12.10;11.60;;;;;;;;;;5076841;28;20101;-65
2023/08/30 08:13:42;;;;;;;12.27;11.77;;;;;;;;;;5074283;28;20048;-66
2023/08/30 08:16:07;;;;;;;12.30;11.80;;;;;;;;;;5077527;28;20479;-65
2023/08/30 08:18:32;;;;;;;12.70;12.10;;;;;;;;;;5070115;28;20020;-66
2023/08/30 08:20:58;;;;;;;12.27;11.77;;;;;;;;;;5077062;28;20269;-64
2023/08/30 08:23:23;;;;;;;12.60;12.00;;;;;;;;;;5080876;28;20670;-65
2023/08/30 08:25:48;;;;;;;12.27;11.77;;;;;;;;;;5078188;28;20294;-65
2023/08/30 08:28:14;;;;;;;11.73;11.23;;;;;;;;;;5078240;28;20031;-64
2023/08/30 08:30:39;;;;;;;11.83;11.33;;;;;;;;;;5076893;28;20314;-65
2023/08/30 08:33:04;;;;;;;12.10;11.60;;;;;;;;;;5080273;28;20724;-65
2023/08/30 08:35:30;;;;;;;11.85;11.35;;;;;;;;;;5075689;28;20017;-66
2023/08/30 08:37:55;;;;;;;11.82;11.32;;;;;;;;;;5080057;28;20093;-66
2023/08/30 08:40:20;;;;;;;11.75;11.25;;;;;;;;;;5074765;28;20024;-67
2023/08/30 08:42:48;;;;;;;12.00;11.50;;;;;;;;;;5076442;28;20024;-64
2023/08/30 08:45:13;;;;;;;12.10;11.60;;;;;;;;;;5074762;28;20268;-64
2023/08/30 08:47:39;;;;;;;12.02;11.52;;;;;;;;;;5075990;28;20077;-67
2023/08/30 08:50:05;;;;;;;12.20;11.70;;;;;;;;;;5073439;28;20038;-66
2023/08/30 08:52:30;;;;;;;12.05;11.55;;;;;;;;;;5077253;28;20028;-64
2023/08/30 08:54:56;;;;;;;11.85;11.35;;;;;;;;;;5079357;28;20790;-64
2023/08/30 08:57:22;;;;;;;11.48;10.98;;;;;;;;;;5076966;28;20471;-64
2023/08/30 08:59:47;;;;;;;11.80;11.30;;;;;;;;;;5074290;28;20039;-64
2023/08/30 09:02:13;;;;;;;12.18;11.68;;;;;;;;;;5077011;28;20023;-67
2023/08/30 09:04:39;;;;;;;12.07;11.57;;;;;;;;;;5079111;28;20035;-65
2023/08/30 09:07:04;;;;;;;11.93;11.43;;;;;;;;;;5076335;28;20024;-64
2023/08/30 09:09:30;;;;;;;12.13;11.63;;;;;;;;;;5080081;28;20115;-67
2023/08/30 09:11:55;;;;;;;11.90;11.40;;;;;;;;;;5076431;28;20483;-65
2023/08/30 09:14:21;;;;;;;11.90;11.40;;;;;;;;;;5078460;28;20031;-64
2023/08/30 09:16:56;;;;;;;11.90;11.40;;;;;;;;;;5081037;28;20028;-65
2023/08/30 09:19:22;;;;;;;11.77;11.27;;;;;;;;;;5070802;28;20276;-65
2023/08/30 09:21:54;;;;;;;11.95;11.45;;;;;;;;;;5077825;28;20541;-65
2023/08/30 09:24:19;;;;;;;12.05;11.55;;;;;;;;;;5072773;28;20081;-65
2023/08/30 09:26:49;;;;;;;11.93;11.43;;;;;;;;;;5073154;28;20039;-65
2023/08/30 09:29:16;;;;;;;12.18;11.68;;;;;;;;;;5080865;28;20020;-65
2023/08/30 09:31:41;;;;;;;11.60;11.10;;;;;;;;;;5080455;28;20028;-65
2023/08/30 09:34:07;;;;;;;11.57;11.07;;;;;;;;;;5079033;28;20075;-64
2023/08/30 09:36:36;;;;;;;12.18;11.68;;;;;;;;;;5076531;28;20073;-64
2023/08/30 09:39:05;;;;;;;12.00;11.50;;;;;;;;;;5076028;28;20024;-65
2023/08/30 09:41:32;;;;;;;11.90;11.40;;;;;;;;;;5073291;28;20107;-65
2023/08/30 09:43:58;;;;;;;12.57;11.98;;;;;;;;;;5070564;28;20279;-63
2023/08/30 09:46:24;;;;;;;12.75;12.15;;;;;;;;;;5081316;28;20016;-63
2023/08/30 09:48:50;;;;;;;13.23;12.63;;;;;;;;;;5077967;28;20016;-61
2023/08/30 09:51:16;;;;;;;12.75;12.15;;;;;;;;;;5079189;28;20173;-62
2023/08/30 09:53:43;;;;;;;12.90;12.30;;;;;;;;;;5069996;28;20027;-63
2023/08/30 09:56:11;;;;;;;12.90;12.30;;;;;;;;;;5074844;28;20028;-63
2023/08/30 09:58:38;;;;;;;13.30;12.70;;;;;;;;;;5095381;28;20036;-64
2023/08/30 10:01:03;;;;;;;13.10;12.50;;;;;;;;;;5077483;28;20069;-64
2023/08/30 10:03:30;;;;;;;12.90;12.30;;;;;;;;;;5075667;28;20060;-61
2023/08/30 10:05:56;;;;;;;12.90;12.30;;;;;;;;;;5074417;28;20453;-60
2023/08/30 10:08:23;;;;;;;12.32;11.73;;;;;;;;;;5079477;28;20054;-62
2023/08/30 10:10:49;;;;;;;13.32;12.73;;;;;;;;;;5078602;28;20029;-61
2023/08/30 10:13:14;;;;;;;12.77;12.18;;;;;;;;;;5075156;28;20024;-60
2023/08/30 10:15:43;;;;;;;13.23;12.63;;;;;;;;;;5078378;28;20036;-62
2023/08/30 10:18:11;;;;;;;12.95;12.35;;;;;;;;;;5074508;28;20034;-63
2023/08/30 10:20:38;;;;;;;12.90;12.30;;;;;;;;;;5081015;28;20024;-60
2023/08/30 10:23:03;;;;;;;12.82;12.23;;;;;;;;;;5075209;28;20016;-62
2023/08/30 10:25:30;;;;;;;12.80;12.20;;;;;;;;;;5074814;28;20018;-62
2023/08/30 10:27:56;;;;;;;12.80;12.20;;;;;;;;;;5077786;28;20504;-61
2023/08/30 10:30:22;;;;;;;12.40;11.80;;;;;;;;;;5076206;28;20031;-62
2023/08/30 10:32:48;;;;;;;12.35;11.75;;;;;;;;;;5073433;28;20023;-66
2023/08/30 10:35:14;;;;;;;13.10;12.50;;;;;;;;;;5072685;28;20035;-63
2023/08/30 10:37:40;;;;;;;12.80;12.20;;;;;;;;;;5074259;28;20119;-65
2023/08/30 10:40:08;;;;;;;12.82;12.23;;;;;;;;;;5082005;28;20153;-66
2023/08/30 10:42:34;;;;;;;12.27;11.68;;;;;;;;;;5075859;28;20529;-61
2023/08/30 10:45:00;;;;;;;12.43;11.82;;;;;;;;;;5075725;28;20745;-61
2023/08/30 10:47:29;;;;;;;12.90;12.30;;;;;;;;;;5078659;28;21253;-62
2023/08/30 10:49:59;;;;;;;13.07;12.48;;;;;;;;;;5076456;28;20036;-63
2023/08/30 10:52:25;;;;;;;12.68;12.07;;;;;;;;;;5079307;28;20034;-63
2023/08/30 10:54:51;;;;;;;12.55;11.95;;;;;;;;;;5080440;28;20032;-63
2023/08/30 10:57:20;;;;;;;12.85;12.25;;;;;;;;;;5074140;28;20035;-63
2023/08/30 11:00:24;;;;;;;13.60;12.95;;;;;;;;;;5076851;28;20036;-62
2023/08/30 11:02:50;;;;;;;12.55;11.95;;;;;;;;;;5041105;28;20049;-61
2023/08/30 11:05:16;;;;;;;12.73;12.13;;;;;;;;;;5040393;28;20392;-61
2023/08/30 11:07:42;;;;;;;12.63;12.02;;;;;;;;;;5055088;28;20438;-61
2023/08/30 11:10:08;;;;;;;12.18;11.57;;;;;;;;;;5079509;28;20032;-61
2023/08/30 11:12:34;;;;;;;12.40;11.80;;;;;;;;;;5079382;28;20028;-61
2023/08/30 11:14:59;;;;;;;13.02;12.43;;;;;;;;;;5077760;28;20103;-61
2023/08/30 11:17:26;;;;;;;11.93;11.38;;;;;;;;;;5080277;28;20102;-62
2023/08/30 11:19:57;;;;;;;12.20;11.60;;;;;;;;;;5071850;28;20035;-61
2023/08/30 11:22:22;;;;;;;12.30;11.70;;;;;;;;;;5075820;28;20076;-63
2023/08/30 11:24:49;;;;;;;12.88;12.27;;;;;;;;;;5072854;28;20024;-61
2023/08/30 11:27:16;;;;;;;12.55;11.95;;;;;;;;;;5074062;28;20047;-61
2023/08/30 11:29:41;;;;;;;11.90;11.40;;;;;;;;;;5080114;28;20031;-61
2023/08/30 11:32:07;;;;;;;12.45;11.85;;;;;;;;;;5079446;28;20483;-62
2023/08/30 11:34:32;;;;;;;12.38;11.77;;;;;;;;;;5080669;28;20031;-63
2023/08/30 11:36:58;;;;;;;12.88;12.27;;;;;;;;;;5077014;28;20022;-63
2023/08/30 11:39:27;;;;;;;12.70;12.10;;;;;;;;;;5073580;28;20028;-62
2023/08/30 11:41:53;;;;;;;12.93;12.32;;;;;;;;;;5076194;28;20016;-62
2023/08/30 11:44:19;;;;;;;12.30;11.70;;;;;;;;;;5077636;28;20027;-62
2023/08/30 11:46:44;;;;;;;12.18;11.57;;;;;;;;;;5079076;28;20032;-63
2023/08/30 11:49:09;;;;;;;12.23;11.63;;;;;;;;;;5077364;28;20093;-62
2023/08/30 11:51:35;;;;;;;12.32;11.73;;;;;;;;;;5079542;28;20119;-62
2023/08/30 11:54:03;;;;;;;12.50;11.90;;;;;;;;;;5075664;28;20439;-62
2023/08/30 11:56:29;;;;;;;11.75;11.25;;;;;;;;;;5077069;28;20039;-64
2023/08/30 11:58:54;;;;;;;12.73;12.13;;;;;;;;;;5070802;28;20082;-64
2023/08/30 12:01:19;;;;;;;12.77;12.18;;;;;;;;;;5075806;28;20031;-63
2023/08/30 12:03:50;;;;;;;12.65;12.05;;;;;;;;;;5079539;28;20052;-63
2023/08/30 12:06:15;;;;;;;12.68;12.07;;;;;;;;;;5072079;28;20564;-64
2023/08/30 12:08:40;;;;;;;12.35;11.75;;;;;;;;;;5078683;28;20045;-63
2023/08/30 12:11:16;;;;;;;13.10;12.50;;;;;;;;;;5074427;28;20035;-65
2023/08/30 12:13:41;;;;;;;13.07;12.48;;;;;;;;;;5072937;28;20016;-67
2023/08/30 12:16:08;;;;;;;12.48;11.88;;;;;;;;;;5077815;28;20408;-64
2023/08/30 12:18:33;;;;;;;13.13;12.52;;;;;;;;;;5074037;28;20024;-64
2023/08/30 12:20:59;;;;;;;12.15;11.55;;;;;;;;;;5078218;28;20027;-63
2023/08/30 12:23:29;;;;;;;13.65;12.95;;;;;;;;;;5076276;28;20433;-65
2023/08/30 12:25:57;;;;;;;13.30;12.68;;;;;;;;;;5072483;28;20032;-64
2023/08/30 12:28:22;;;;;;;12.38;11.77;;;;;;;;;;5070068;28;20023;-65
2023/08/30 12:30:48;;;;;;;12.52;11.93;;;;;;;;;;5074487;28;20024;-66
2023/08/30 12:33:15;;;;;;;12.93;12.32;;;;;;;;;;5072241;28;20103;-64
2023/08/30 12:35:41;;;;;;;13.15;12.55;;;;;;;;;;5076559;28;20028;-63
2023/08/30 12:38:06;;;;;;;12.10;11.52;;;;;;;;;;5074206;28;20591;-64
2023/08/30 12:40:32;;;;;;;12.45;11.85;;;;;;;;;;5076440;28;20441;-65
2023/08/30 12:42:57;;;;;;;11.95;11.40;;;;;;;;;;5071672;28;20032;-62
2023/08/30 12:45:23;;;;;;;12.65;12.05;;;;;;;;;;5078793;28;20131;-65
2023/08/30 12:47:48;;;;;;;12.60;12.00;;;;;;;;;;5073685;28;20662;-66
2023/08/30 12:50:13;;;;;;;12.52;11.93;;;;;;;;;;5077200;28;20387;-65
2023/08/30 12:52:38;;;;;;;12.82;12.23;;;;;;;;;;5076714;28;20031;-65
2023/08/30 12:55:04;;;;;;;12.18;11.57;;;;;;;;;;5079291;28;20024;-67
2023/08/30 12:57:29;;;;;;;12.23;11.63;;;;;;;;;;5073216;28;20028;-67
2023/08/30 12:59:54;;;;;;;11.65;11.15;;;;;;;;;;5077097;28;20032;-67
2023/08/30 13:02:20;;;;;;;11.93;11.35;;;;;;;;;;5079555;28;20048;-68
2023/08/30 13:04:45;;;;;;;12.57;11.98;;;;;;;;;;5076438;28;21911;-70
2023/08/30 13:07:10;;;;;;;11.40;10.90;;;;;;;;;;5078170;28;20013;-62
2023/08/30 13:09:36;;;;;;;12.40;11.80;;;;;;;;;;5077913;28;20081;-62
2023/08/30 13:12:01;;;;;;;12.45;11.85;;;;;;;;;;5078735;28;20020;-63
2023/08/30 13:14:26;;;;;;;14.52;13.82;;;;;;;;;;5069850;28;20451;-62
2023/08/30 13:16:52;;;;;;;12.10;11.50;;;;;;;;;;5074128;28;20024;-62
2023/08/30 13:19:17;;;;;;;12.05;11.45;;;;;;;;;;5080232;28;20111;-62
2023/08/30 13:21:42;;;;;;;13.18;12.57;;;;;;;;;;5072603;28;20128;-62
2023/08/30 13:24:08;;;;;;;12.35;11.75;;;;;;;;;;5077343;28;20024;-61
2023/08/30 13:26:33;;;;;;;11.43;10.93;;;;;;;;;;5075511;28;20032;-63
2023/08/30 13:29:01;;;;;;;12.50;11.90;;;;;;;;;;5075739;28;20027;-64
2023/08/30 13:31:27;;;;;;;12.35;11.75;;;;;;;;;;5081331;28;20031;-62
2023/08/30 13:33:52;;;;;;;12.02;11.45;;;;;;;;;;5080019;28;20691;-63
2023/08/30 13:36:17;;;;;;;13.32;12.73;;;;;;;;;;5073508;28;20035;-62
2023/08/30 13:38:43;;;;;;;13.02;12.43;;;;;;;;;;5082067;28;20549;-61
2023/08/30 13:41:08;;;;;;;12.13;11.52;;;;;;;;;;5078165;28;20032;-63
2023/08/30 13:43:33;;;;;;;12.52;11.93;;;;;;;;;;5074679;28;20131;-63
2023/08/30 13:45:59;;;;;;;12.05;11.45;;;;;;;;;;5079519;28;20036;-62
2023/08/30 13:48:25;;;;;;;11.88;11.38;;;;;;;;;;5075540;28;20044;-61
2023/08/30 13:50:50;;;;;;;12.85;12.25;;;;;;;;;;5077615;28;20099;-63
2023/08/30 13:53:15;;;;;;;12.23;11.63;;;;;;;;;;5072685;28;20463;-62
2023/08/30 13:55:44;;;;;;;11.95;11.38;;;;;;;;;;5074842;28;20491;-63
2023/08/30 13:58:09;;;;;;;12.23;11.63;;;;;;;;;;5075754;28;20039;-62
2023/08/30 14:00:35;;;;;;;12.38;11.77;;;;;;;;;;5074058;28;20016;-62
2023/08/30 14:03:00;;;;;;;12.60;12.00;;;;;;;;;;5080832;28;20078;-62
2023/08/30 14:05:25;;;;;;;12.10;11.50;;;;;;;;;;5078777;28;20032;-63
2023/08/30 14:07:51;;;;;;;13.15;12.55;;;;;;;;;;5074367;28;20020;-62